sensor_id;sensor_type;location;lat;lon;timestamp;P1;durP1;ratioP1;P2;durP2;ratioP2
5821;SDS011;2937;48.562;8.022;2023-06-19T00:01:16;15.43;;;10.30;;
5821;SDS011;2937;48.562;8.022;2023-06-19T00:06:10;22.03;;;10.97;;
5821;SDS011;2937;48.562;8.022;2023-06-19T00:11:03;16.90;;;10.87;;
5821;SDS011;2937;48.562;8.022;2023-06-19T00:15:56;17.00;;;11.20;;
5821;SDS011;2937;48.562;8.022;2023-06-19T00:20:52;13.50;;;10.73;;
5821;SDS011;2937;48.562;8.022;2023-06-19T00:25:48;18.83;;;11.40;;
5821;SDS011;2937;48.562;8.022;2023-06-19T00:30:41;13.67;;;11.80;;
5821;SDS011;2937;48.562;8.022;2023-06-19T00:35:34;19.73;;;12.73;;
5821;SDS011;2937;48.562;8.022;2023-06-19T00:40:27;16.60;;;12.03;;
5821;SDS011;2937;48.562;8.022;2023-06-19T00:45:21;16.70;;;13.00;;
5821;SDS011;2937;48.562;8.022;2023-06-19T00:50:15;17.03;;;13.40;;
5821;SDS011;2937;48.562;8.022;2023-06-19T00:55:08;16.03;;;14.37;;
5821;SDS011;2937;48.562;8.022;2023-06-19T01:00:02;16.13;;;14.10;;
5821;SDS011;2937;48.562;8.022;2023-06-19T01:04:57;18.70;;;13.80;;
5821;SDS011;2937;48.562;8.022;2023-06-19T01:09:52;15.10;;;12.87;;
5821;SDS011;2937;48.562;8.022;2023-06-19T01:14:48;15.57;;;13.67;;
5821;SDS011;2937;48.562;8.022;2023-06-19T01:19:42;14.73;;;12.80;;
5821;SDS011;2937;48.562;8.022;2023-06-19T01:24:36;17.10;;;15.00;;
5821;SDS011;2937;48.562;8.022;2023-06-19T01:29:29;17.97;;;16.03;;
5821;SDS011;2937;48.562;8.022;2023-06-19T01:34:22;15.50;;;13.90;;
5821;SDS011;2937;48.562;8.022;2023-06-19T01:39:18;16.63;;;13.87;;
5821;SDS011;2937;48.562;8.022;2023-06-19T01:44:12;14.17;;;11.17;;
5821;SDS011;2937;48.562;8.022;2023-06-19T01:49:06;10.23;;;8.97;;
5821;SDS011;2937;48.562;8.022;2023-06-19T01:53:59;8.13;;;7.10;;
5821;SDS011;2937;48.562;8.022;2023-06-19T01:58:51;6.73;;;6.03;;
5821;SDS011;2937;48.562;8.022;2023-06-19T02:03:48;9.10;;;7.40;;
5821;SDS011;2937;48.562;8.022;2023-06-19T02:08:40;8.43;;;7.10;;
5821;SDS011;2937;48.562;8.022;2023-06-19T02:13:35;11.63;;;8.10;;
5821;SDS011;2937;48.562;8.022;2023-06-19T02:18:30;12.23;;;10.57;;
5821;SDS011;2937;48.562;8.022;2023-06-19T02:23:25;13.13;;;8.77;;
5821;SDS011;2937;48.562;8.022;2023-06-19T02:28:18;8.47;;;7.57;;
5821;SDS011;2937;48.562;8.022;2023-06-19T02:33:11;8.70;;;7.80;;
5821;SDS011;2937;48.562;8.022;2023-06-19T02:38:04;12.40;;;10.40;;
5821;SDS011;2937;48.562;8.022;2023-06-19T02:42:58;12.47;;;10.50;;
5821;SDS011;2937;48.562;8.022;2023-06-19T02:47:51;13.00;;;10.20;;
5821;SDS011;2937;48.562;8.022;2023-06-19T02:52:44;12.70;;;10.40;;
5821;SDS011;2937;48.562;8.022;2023-06-19T02:57:37;14.63;;;11.90;;
5821;SDS011;2937;48.562;8.022;2023-06-19T03:02:31;13.70;;;10.17;;
5821;SDS011;2937;48.562;8.022;2023-06-19T03:07:24;10.87;;;7.70;;
5821;SDS011;2937;48.562;8.022;2023-06-19T03:12:19;9.53;;;8.43;;
5821;SDS011;2937;48.562;8.022;2023-06-19T03:17:12;10.50;;;8.10;;
5821;SDS011;2937;48.562;8.022;2023-06-19T03:22:07;9.50;;;7.60;;
5821;SDS011;2937;48.562;8.022;2023-06-19T03:27:01;9.90;;;6.93;;
5821;SDS011;2937;48.562;8.022;2023-06-19T03:31:55;9.67;;;6.90;;
5821;SDS011;2937;48.562;8.022;2023-06-19T03:36:53;7.50;;;6.70;;
5821;SDS011;2937;48.562;8.022;2023-06-19T03:41:48;7.60;;;6.87;;
5821;SDS011;2937;48.562;8.022;2023-06-19T03:46:41;7.90;;;7.10;;
5821;SDS011;2937;48.562;8.022;2023-06-19T03:51:36;8.43;;;7.60;;
5821;SDS011;2937;48.562;8.022;2023-06-19T03:56:28;7.57;;;6.80;;
5821;SDS011;2937;48.562;8.022;2023-06-19T04:01:23;8.97;;;7.33;;
5821;SDS011;2937;48.562;8.022;2023-06-19T04:06:15;11.10;;;7.30;;
5821;SDS011;2937;48.562;8.022;2023-06-19T04:11:08;7.83;;;7.13;;
5821;SDS011;2937;48.562;8.022;2023-06-19T04:16:01;8.90;;;7.10;;
5821;SDS011;2937;48.562;8.022;2023-06-19T04:20:55;11.00;;;7.30;;
5821;SDS011;2937;48.562;8.022;2023-06-19T04:25:48;10.27;;;7.70;;
5821;SDS011;2937;48.562;8.022;2023-06-19T04:30:41;7.93;;;7.13;;
5821;SDS011;2937;48.562;8.022;2023-06-19T04:35:34;8.90;;;7.27;;
5821;SDS011;2937;48.562;8.022;2023-06-19T04:40:33;6.67;;;6.03;;
5821;SDS011;2937;48.562;8.022;2023-06-19T04:45:25;7.90;;;6.53;;
5821;SDS011;2937;48.562;8.022;2023-06-19T04:50:18;7.97;;;7.10;;
5821;SDS011;2937;48.562;8.022;2023-06-19T04:55:11;9.13;;;7.60;;
5821;SDS011;2937;48.562;8.022;2023-06-19T05:00:06;7.03;;;6.33;;
5821;SDS011;2937;48.562;8.022;2023-06-19T05:04:58;11.37;;;9.40;;
5821;SDS011;2937;48.562;8.022;2023-06-19T05:09:54;10.10;;;9.10;;
5821;SDS011;2937;48.562;8.022;2023-06-19T05:14:47;28.67;;;17.43;;
5821;SDS011;2937;48.562;8.022;2023-06-19T05:19:41;11.43;;;10.23;;
5821;SDS011;2937;48.562;8.022;2023-06-19T05:24:34;9.03;;;6.97;;
5821;SDS011;2937;48.562;8.022;2023-06-19T05:29:26;6.90;;;6.20;;
5821;SDS011;2937;48.562;8.022;2023-06-19T05:34:21;8.23;;;5.80;;
5821;SDS011;2937;48.562;8.022;2023-06-19T05:39:15;6.97;;;5.27;;
5821;SDS011;2937;48.562;8.022;2023-06-19T05:44:10;7.13;;;5.70;;
5821;SDS011;2937;48.562;8.022;2023-06-19T05:49:06;5.80;;;5.30;;
5821;SDS011;2937;48.562;8.022;2023-06-19T05:53:59;6.40;;;5.80;;
5821;SDS011;2937;48.562;8.022;2023-06-19T05:58:56;7.77;;;5.50;;
5821;SDS011;2937;48.562;8.022;2023-06-19T06:03:49;7.33;;;5.90;;
5821;SDS011;2937;48.562;8.022;2023-06-19T06:08:41;6.63;;;5.03;;
5821;SDS011;2937;48.562;8.022;2023-06-19T06:13:34;9.07;;;4.90;;
5821;SDS011;2937;48.562;8.022;2023-06-19T06:18:28;7.07;;;5.00;;
5821;SDS011;2937;48.562;8.022;2023-06-19T06:23:21;5.90;;;5.07;;
5821;SDS011;2937;48.562;8.022;2023-06-19T06:28:13;6.53;;;4.70;;
5821;SDS011;2937;48.562;8.022;2023-06-19T06:33:06;11.70;;;4.77;;
5821;SDS011;2937;48.562;8.022;2023-06-19T06:38:00;6.00;;;5.20;;
5821;SDS011;2937;48.562;8.022;2023-06-19T06:42:53;6.70;;;5.40;;
5821;SDS011;2937;48.562;8.022;2023-06-19T06:47:47;7.47;;;5.67;;
5821;SDS011;2937;48.562;8.022;2023-06-19T06:52:39;6.53;;;5.93;;
5821;SDS011;2937;48.562;8.022;2023-06-19T06:57:34;5.93;;;5.43;;
5821;SDS011;2937;48.562;8.022;2023-06-19T07:02:26;6.67;;;6.07;;
5821;SDS011;2937;48.562;8.022;2023-06-19T07:07:19;7.13;;;5.90;;
5821;SDS011;2937;48.562;8.022;2023-06-19T07:12:12;7.00;;;6.30;;
5821;SDS011;2937;48.562;8.022;2023-06-19T07:17:06;6.67;;;6.07;;
5821;SDS011;2937;48.562;8.022;2023-06-19T07:21:59;6.80;;;6.17;;
5821;SDS011;2937;48.562;8.022;2023-06-19T07:26:52;6.33;;;5.73;;
5821;SDS011;2937;48.562;8.022;2023-06-19T07:31:45;7.00;;;6.30;;
5821;SDS011;2937;48.562;8.022;2023-06-19T07:36:39;6.57;;;5.93;;
5821;SDS011;2937;48.562;8.022;2023-06-19T07:41:32;7.20;;;6.50;;
5821;SDS011;2937;48.562;8.022;2023-06-19T07:46:25;7.30;;;6.10;;
5821;SDS011;2937;48.562;8.022;2023-06-19T07:51:18;7.17;;;6.47;;
5821;SDS011;2937;48.562;8.022;2023-06-19T07:56:12;7.40;;;6.20;;
5821;SDS011;2937;48.562;8.022;2023-06-19T08:01:05;7.00;;;6.30;;
5821;SDS011;2937;48.562;8.022;2023-06-19T08:05:57;9.90;;;6.30;;
5821;SDS011;2937;48.562;8.022;2023-06-19T08:10:50;7.40;;;6.70;;
5821;SDS011;2937;48.562;8.022;2023-06-19T08:15:44;7.10;;;5.90;;
5821;SDS011;2937;48.562;8.022;2023-06-19T08:20:37;6.40;;;5.80;;
5821;SDS011;2937;48.562;8.022;2023-06-19T08:25:29;6.40;;;5.80;;
5821;SDS011;2937;48.562;8.022;2023-06-19T08:30:22;6.87;;;6.17;;
5821;SDS011;2937;48.562;8.022;2023-06-19T08:35:17;6.10;;;5.60;;
5821;SDS011;2937;48.562;8.022;2023-06-19T08:40:11;7.73;;;5.63;;
5821;SDS011;2937;48.562;8.022;2023-06-19T08:45:04;6.23;;;5.73;;
5821;SDS011;2937;48.562;8.022;2023-06-19T08:49:59;6.87;;;6.17;;
5821;SDS011;2937;48.562;8.022;2023-06-19T08:54:54;6.40;;;5.73;;
5821;SDS011;2937;48.562;8.022;2023-06-19T08:59:47;6.70;;;6.10;;
5821;SDS011;2937;48.562;8.022;2023-06-19T09:04:40;6.40;;;5.80;;
5821;SDS011;2937;48.562;8.022;2023-06-19T09:09:33;6.50;;;5.90;;
5821;SDS011;2937;48.562;8.022;2023-06-19T09:14:33;6.50;;;5.90;;
5821;SDS011;2937;48.562;8.022;2023-06-19T09:19:26;6.70;;;6.10;;
5821;SDS011;2937;48.562;8.022;2023-06-19T09:24:19;6.40;;;5.80;;
5821;SDS011;2937;48.562;8.022;2023-06-19T09:29:12;6.53;;;5.93;;
5821;SDS011;2937;48.562;8.022;2023-06-19T09:34:09;7.80;;;6.10;;
5821;SDS011;2937;48.562;8.022;2023-06-19T09:39:02;6.63;;;6.03;;
5821;SDS011;2937;48.562;8.022;2023-06-19T09:43:55;6.20;;;5.70;;
5821;SDS011;2937;48.562;8.022;2023-06-19T09:48:51;6.43;;;5.73;;
5821;SDS011;2937;48.562;8.022;2023-06-19T09:53:48;6.60;;;6.00;;
5821;SDS011;2937;48.562;8.022;2023-06-19T09:58:41;6.80;;;6.17;;
5821;SDS011;2937;48.562;8.022;2023-06-19T10:03:35;9.30;;;5.63;;
5821;SDS011;2937;48.562;8.022;2023-06-19T10:08:29;6.03;;;5.50;;
5821;SDS011;2937;48.562;8.022;2023-06-19T10:13:30;6.07;;;5.47;;
5821;SDS011;2937;48.562;8.022;2023-06-19T10:18:23;7.40;;;6.10;;
5821;SDS011;2937;48.562;8.022;2023-06-19T10:23:17;6.00;;;5.50;;
5821;SDS011;2937;48.562;8.022;2023-06-19T10:28:17;7.03;;;5.90;;
5821;SDS011;2937;48.562;8.022;2023-06-19T10:33:11;5.70;;;5.17;;
5821;SDS011;2937;48.562;8.022;2023-06-19T10:38:04;5.90;;;5.40;;
5821;SDS011;2937;48.562;8.022;2023-06-19T10:42:57;5.67;;;5.17;;
5821;SDS011;2937;48.562;8.022;2023-06-19T10:47:50;6.63;;;5.93;;
5821;SDS011;2937;48.562;8.022;2023-06-19T10:52:45;6.20;;;5.47;;
5821;SDS011;2937;48.562;8.022;2023-06-19T10:57:39;6.00;;;5.50;;
5821;SDS011;2937;48.562;8.022;2023-06-19T11:02:32;5.80;;;5.23;;
5821;SDS011;2937;48.562;8.022;2023-06-19T11:07:25;5.63;;;5.17;;
5821;SDS011;2937;48.562;8.022;2023-06-19T11:12:20;5.90;;;5.30;;
5821;SDS011;2937;48.562;8.022;2023-06-19T11:17:13;5.57;;;5.00;;
5821;SDS011;2937;48.562;8.022;2023-06-19T11:22:06;6.27;;;5.50;;
5821;SDS011;2937;48.562;8.022;2023-06-19T11:26:59;6.20;;;5.70;;
5821;SDS011;2937;48.562;8.022;2023-06-19T11:31:53;6.07;;;5.57;;
5821;SDS011;2937;48.562;8.022;2023-06-19T11:36:46;5.50;;;5.00;;
5821;SDS011;2937;48.562;8.022;2023-06-19T11:41:39;5.93;;;5.43;;
5821;SDS011;2937;48.562;8.022;2023-06-19T11:46:33;6.00;;;5.40;;
5821;SDS011;2937;48.562;8.022;2023-06-19T11:51:27;5.83;;;5.33;;
5821;SDS011;2937;48.562;8.022;2023-06-19T11:56:22;5.40;;;4.87;;
5821;SDS011;2937;48.562;8.022;2023-06-19T12:01:15;5.97;;;5.37;;
5821;SDS011;2937;48.562;8.022;2023-06-19T12:06:07;6.30;;;5.47;;
5821;SDS011;2937;48.562;8.022;2023-06-19T12:11:01;6.20;;;5.70;;
5821;SDS011;2937;48.562;8.022;2023-06-19T12:15:54;5.80;;;5.30;;
5821;SDS011;2937;48.562;8.022;2023-06-19T12:20:47;6.30;;;5.60;;
5821;SDS011;2937;48.562;8.022;2023-06-19T12:25:39;7.23;;;5.10;;
5821;SDS011;2937;48.562;8.022;2023-06-19T12:30:33;6.20;;;5.60;;
5821;SDS011;2937;48.562;8.022;2023-06-19T12:35:26;6.40;;;5.77;;
5821;SDS011;2937;48.562;8.022;2023-06-19T12:40:21;6.50;;;5.90;;
5821;SDS011;2937;48.562;8.022;2023-06-19T12:45:15;5.40;;;4.90;;
5821;SDS011;2937;48.562;8.022;2023-06-19T12:50:09;7.83;;;5.53;;
5821;SDS011;2937;48.562;8.022;2023-06-19T12:55:03;5.53;;;5.03;;
5821;SDS011;2937;48.562;8.022;2023-06-19T12:59:56;9.60;;;5.70;;
5821;SDS011;2937;48.562;8.022;2023-06-19T13:04:49;5.90;;;5.40;;
5821;SDS011;2937;48.562;8.022;2023-06-19T13:09:43;5.77;;;5.17;;
5821;SDS011;2937;48.562;8.022;2023-06-19T13:14:35;5.73;;;4.93;;
5821;SDS011;2937;48.562;8.022;2023-06-19T13:19:29;6.70;;;5.63;;
5821;SDS011;2937;48.562;8.022;2023-06-19T13:24:22;7.23;;;5.77;;
5821;SDS011;2937;48.562;8.022;2023-06-19T13:29:16;6.50;;;5.80;;
5821;SDS011;2937;48.562;8.022;2023-06-19T13:34:09;7.33;;;5.70;;
5821;SDS011;2937;48.562;8.022;2023-06-19T13:39:01;5.70;;;5.20;;
5821;SDS011;2937;48.562;8.022;2023-06-19T13:43:55;6.73;;;6.13;;
5821;SDS011;2937;48.562;8.022;2023-06-19T13:48:49;5.40;;;4.90;;
5821;SDS011;2937;48.562;8.022;2023-06-19T13:53:43;6.03;;;5.53;;
5821;SDS011;2937;48.562;8.022;2023-06-19T13:58:36;6.93;;;5.70;;
5821;SDS011;2937;48.562;8.022;2023-06-19T14:03:29;6.63;;;5.47;;
5821;SDS011;2937;48.562;8.022;2023-06-19T14:08:23;6.27;;;5.70;;
5821;SDS011;2937;48.562;8.022;2023-06-19T14:13:16;6.00;;;5.50;;
5821;SDS011;2937;48.562;8.022;2023-06-19T14:18:09;8.93;;;5.93;;
5821;SDS011;2937;48.562;8.022;2023-06-19T14:23:02;6.93;;;6.33;;
5821;SDS011;2937;48.562;8.022;2023-06-19T14:27:56;7.10;;;6.50;;
5821;SDS011;2937;48.562;8.022;2023-06-19T14:32:48;6.50;;;5.90;;
5821;SDS011;2937;48.562;8.022;2023-06-19T14:37:41;6.00;;;5.50;;
5821;SDS011;2937;48.562;8.022;2023-06-19T14:42:34;6.00;;;5.53;;
5821;SDS011;2937;48.562;8.022;2023-06-19T14:47:28;6.10;;;5.60;;
5821;SDS011;2937;48.562;8.022;2023-06-19T14:52:21;6.37;;;5.77;;
5821;SDS011;2937;48.562;8.022;2023-06-19T14:57:13;6.57;;;5.97;;
5821;SDS011;2937;48.562;8.022;2023-06-19T15:02:06;6.10;;;5.60;;
5821;SDS011;2937;48.562;8.022;2023-06-19T15:07:01;6.43;;;5.83;;
5821;SDS011;2937;48.562;8.022;2023-06-19T15:11:56;6.57;;;5.87;;
5821;SDS011;2937;48.562;8.022;2023-06-19T15:16:49;7.30;;;6.60;;
5821;SDS011;2937;48.562;8.022;2023-06-19T15:21:42;15.50;;;6.57;;
5821;SDS011;2937;48.562;8.022;2023-06-19T15:26:36;7.20;;;6.60;;
5821;SDS011;2937;48.562;8.022;2023-06-19T15:31:30;7.40;;;6.67;;
5821;SDS011;2937;48.562;8.022;2023-06-19T15:36:23;8.23;;;7.00;;
5821;SDS011;2937;48.562;8.022;2023-06-19T15:41:16;7.50;;;6.80;;
5821;SDS011;2937;48.562;8.022;2023-06-19T15:46:10;7.60;;;6.80;;
5821;SDS011;2937;48.562;8.022;2023-06-19T15:51:03;7.97;;;7.13;;
5821;SDS011;2937;48.562;8.022;2023-06-19T15:55:55;7.13;;;6.50;;
5821;SDS011;2937;48.562;8.022;2023-06-19T16:00:48;7.03;;;6.43;;
5821;SDS011;2937;48.562;8.022;2023-06-19T16:05:45;6.83;;;6.13;;
5821;SDS011;2937;48.562;8.022;2023-06-19T16:10:58;7.10;;;6.40;;
5821;SDS011;2937;48.562;8.022;2023-06-19T16:15:51;6.73;;;6.13;;
5821;SDS011;2937;48.562;8.022;2023-06-19T16:20:44;8.07;;;6.30;;
5821;SDS011;2937;48.562;8.022;2023-06-19T16:25:38;7.40;;;6.67;;
5821;SDS011;2937;48.562;8.022;2023-06-19T16:30:30;6.80;;;6.20;;
5821;SDS011;2937;48.562;8.022;2023-06-19T16:35:23;7.27;;;6.57;;
5821;SDS011;2937;48.562;8.022;2023-06-19T16:40:16;6.87;;;6.27;;
5821;SDS011;2937;48.562;8.022;2023-06-19T16:45:11;8.00;;;7.30;;
5821;SDS011;2937;48.562;8.022;2023-06-19T16:50:03;8.23;;;7.13;;
5821;SDS011;2937;48.562;8.022;2023-06-19T16:54:56;7.77;;;7.07;;
5821;SDS011;2937;48.562;8.022;2023-06-19T16:59:50;6.97;;;6.27;;
5821;SDS011;2937;48.562;8.022;2023-06-19T17:04:44;8.03;;;6.60;;
5821;SDS011;2937;48.562;8.022;2023-06-19T17:09:37;7.30;;;6.60;;
5821;SDS011;2937;48.562;8.022;2023-06-19T17:14:30;8.10;;;7.30;;
5821;SDS011;2937;48.562;8.022;2023-06-19T17:19:22;7.10;;;6.50;;
5821;SDS011;2937;48.562;8.022;2023-06-19T17:24:16;9.20;;;7.53;;
5821;SDS011;2937;48.562;8.022;2023-06-19T17:29:09;9.97;;;7.10;;
5821;SDS011;2937;48.562;8.022;2023-06-19T17:34:02;11.43;;;7.30;;
5821;SDS011;2937;48.562;8.022;2023-06-19T17:38:55;8.57;;;7.73;;
5821;SDS011;2937;48.562;8.022;2023-06-19T17:43:49;9.30;;;8.07;;
5821;SDS011;2937;48.562;8.022;2023-06-19T17:48:42;8.53;;;7.60;;
5821;SDS011;2937;48.562;8.022;2023-06-19T17:53:38;9.77;;;7.67;;
5821;SDS011;2937;48.562;8.022;2023-06-19T17:58:30;8.70;;;7.80;;
5821;SDS011;2937;48.562;8.022;2023-06-19T18:03:25;9.03;;;7.80;;
5821;SDS011;2937;48.562;8.022;2023-06-19T18:08:18;7.80;;;7.10;;
5821;SDS011;2937;48.562;8.022;2023-06-19T18:13:10;8.80;;;8.00;;
5821;SDS011;2937;48.562;8.022;2023-06-19T18:18:03;9.00;;;8.10;;
5821;SDS011;2937;48.562;8.022;2023-06-19T18:22:57;9.07;;;8.17;;
5821;SDS011;2937;48.562;8.022;2023-06-19T18:27:50;9.40;;;8.50;;
5821;SDS011;2937;48.562;8.022;2023-06-19T18:32:43;9.23;;;8.03;;
5821;SDS011;2937;48.562;8.022;2023-06-19T18:37:35;8.80;;;8.00;;
5821;SDS011;2937;48.562;8.022;2023-06-19T18:42:29;8.83;;;8.00;;
5821;SDS011;2937;48.562;8.022;2023-06-19T18:47:22;9.80;;;7.70;;
5821;SDS011;2937;48.562;8.022;2023-06-19T18:52:16;9.43;;;8.20;;
5821;SDS011;2937;48.562;8.022;2023-06-19T18:57:08;8.40;;;7.70;;
5821;SDS011;2937;48.562;8.022;2023-06-19T19:02:02;9.57;;;8.57;;
5821;SDS011;2937;48.562;8.022;2023-06-19T19:06:58;9.47;;;8.40;;
5821;SDS011;2937;48.562;8.022;2023-06-19T19:11:51;9.13;;;8.23;;
5821;SDS011;2937;48.562;8.022;2023-06-19T19:16:44;16.83;;;8.47;;
5821;SDS011;2937;48.562;8.022;2023-06-19T19:21:38;9.33;;;8.40;;
5821;SDS011;2937;48.562;8.022;2023-06-19T19:26:31;9.33;;;8.43;;
5821;SDS011;2937;48.562;8.022;2023-06-19T19:31:24;10.07;;;8.90;;
5821;SDS011;2937;48.562;8.022;2023-06-19T19:36:17;10.77;;;8.50;;
5821;SDS011;2937;48.562;8.022;2023-06-19T19:41:11;9.67;;;8.67;;
5821;SDS011;2937;48.562;8.022;2023-06-19T19:46:04;10.37;;;9.37;;
5821;SDS011;2937;48.562;8.022;2023-06-19T19:50:57;13.53;;;9.30;;
5821;SDS011;2937;48.562;8.022;2023-06-19T19:55:49;11.40;;;9.07;;
5821;SDS011;2937;48.562;8.022;2023-06-19T20:00:43;14.47;;;9.10;;
5821;SDS011;2937;48.562;8.022;2023-06-19T20:05:40;11.07;;;9.50;;
5821;SDS011;2937;48.562;8.022;2023-06-19T20:10:33;10.80;;;9.80;;
5821;SDS011;2937;48.562;8.022;2023-06-19T20:15:26;10.37;;;9.20;;
5821;SDS011;2937;48.562;8.022;2023-06-19T20:20:20;10.40;;;9.40;;
5821;SDS011;2937;48.562;8.022;2023-06-19T20:25:13;13.05;;;10.07;;
5821;SDS011;2937;48.562;8.022;2023-06-19T20:30:07;11.23;;;9.97;;
5821;SDS011;2937;48.562;8.022;2023-06-19T20:35:00;11.40;;;10.20;;
5821;SDS011;2937;48.562;8.022;2023-06-19T20:39:54;11.73;;;10.17;;
5821;SDS011;2937;48.562;8.022;2023-06-19T20:44:46;11.30;;;10.20;;
5821;SDS011;2937;48.562;8.022;2023-06-19T20:49:41;13.10;;;11.63;;
5821;SDS011;2937;48.562;8.022;2023-06-19T20:54:33;11.97;;;10.77;;
5821;SDS011;2937;48.562;8.022;2023-06-19T20:59:27;13.90;;;10.90;;
5821;SDS011;2937;48.562;8.022;2023-06-19T21:04:20;15.20;;;11.40;;
5821;SDS011;2937;48.562;8.022;2023-06-19T21:09:13;12.13;;;10.83;;
5821;SDS011;2937;48.562;8.022;2023-06-19T21:14:07;12.70;;;10.57;;
5821;SDS011;2937;48.562;8.022;2023-06-19T21:19:01;13.30;;;10.97;;
5821;SDS011;2937;48.562;8.022;2023-06-19T21:23:54;12.30;;;11.10;;
5821;SDS011;2937;48.562;8.022;2023-06-19T21:28:47;13.20;;;11.90;;
5821;SDS011;2937;48.562;8.022;2023-06-19T21:33:39;13.17;;;11.80;;
5821;SDS011;2937;48.562;8.022;2023-06-19T21:38:33;15.10;;;12.10;;
5821;SDS011;2937;48.562;8.022;2023-06-19T21:43:26;13.80;;;12.50;;
5821;SDS011;2937;48.562;8.022;2023-06-19T21:48:19;12.37;;;11.00;;
5821;SDS011;2937;48.562;8.022;2023-06-19T21:53:11;13.17;;;11.57;;
5821;SDS011;2937;48.562;8.022;2023-06-19T21:58:05;12.37;;;11.07;;
5821;SDS011;2937;48.562;8.022;2023-06-19T22:02:58;13.07;;;11.67;;
5821;SDS011;2937;48.562;8.022;2023-06-19T22:07:51;13.23;;;11.93;;
5821;SDS011;2937;48.562;8.022;2023-06-19T22:12:44;12.63;;;11.40;;
5821;SDS011;2937;48.562;8.022;2023-06-19T22:17:38;13.70;;;12.00;;
5821;SDS011;2937;48.562;8.022;2023-06-19T22:22:36;13.20;;;11.90;;
5821;SDS011;2937;48.562;8.022;2023-06-19T22:27:31;13.93;;;12.50;;
5821;SDS011;2937;48.562;8.022;2023-06-19T22:32:24;14.53;;;12.90;;
5821;SDS011;2937;48.562;8.022;2023-06-19T22:37:18;13.77;;;12.37;;
5821;SDS011;2937;48.562;8.022;2023-06-19T22:42:10;17.33;;;13.13;;
5821;SDS011;2937;48.562;8.022;2023-06-19T22:47:03;14.67;;;13.00;;
5821;SDS011;2937;48.562;8.022;2023-06-19T22:51:56;14.33;;;12.90;;
5821;SDS011;2937;48.562;8.022;2023-06-19T22:56:50;15.00;;;13.50;;
5821;SDS011;2937;48.562;8.022;2023-06-19T23:01:44;14.33;;;12.83;;
5821;SDS011;2937;48.562;8.022;2023-06-19T23:06:37;13.63;;;12.30;;
5821;SDS011;2937;48.562;8.022;2023-06-19T23:11:34;14.63;;;12.80;;
5821;SDS011;2937;48.562;8.022;2023-06-19T23:16:28;13.77;;;12.37;;
5821;SDS011;2937;48.562;8.022;2023-06-19T23:21:21;13.27;;;11.97;;
5821;SDS011;2937;48.562;8.022;2023-06-19T23:26:13;14.40;;;12.90;;
5821;SDS011;2937;48.562;8.022;2023-06-19T23:31:06;13.90;;;12.33;;
5821;SDS011;2937;48.562;8.022;2023-06-19T23:36:00;15.67;;;13.67;;
5821;SDS011;2937;48.562;8.022;2023-06-19T23:40:53;14.50;;;12.33;;
5821;SDS011;2937;48.562;8.022;2023-06-19T23:45:46;15.77;;;13.53;;
5821;SDS011;2937;48.562;8.022;2023-06-19T23:50:38;15.30;;;13.70;;
5821;SDS011;2937;48.562;8.022;2023-06-19T23:55:32;15.40;;;13.73;;
